GSHAW EGCB-EGCC
Flight info
| Callsign | GSHAW |
|---|---|
| Flight time | 0h -4m |
| Altitude | 2000 |
| Route | VFR |
| Aircraft | DA40/L-SBDGRY/S |
Departure
| Time | 2026-04-19 09:44 |
|---|---|
| Airport | Manchester Barton Aerodrome (EGCB) |
Arrival
| Time | 2026-04-19 09:40 |
|---|---|
| Airport | Manchester Airport (EGCC) |
| Time | Latitude | Longitude | Altitude | Speed | Heading |
|---|---|---|---|---|---|
| 2026-04-19 09:39 | 53.47094 | -2.38649 | 76 ft | 0 kts | 339° |
| 2026-04-19 09:42 | 53.47095 | -2.38624 | 73 ft | 8 kts | 99° |
| 2026-04-19 09:42 | 53.47057 | -2.38496 | 72 ft | 12 kts | 126° |
| 2026-04-19 09:42 | 53.47068 | -2.38404 | 74 ft | 12 kts | 49° |
| 2026-04-19 09:42 | 53.47122 | -2.38378 | 76 ft | 10 kts | 324° |
| 2026-04-19 09:43 | 53.47183 | -2.38451 | 79 ft | 10 kts | 321° |
| 2026-04-19 09:43 | 53.47191 | -2.38546 | 79 ft | 12 kts | 254° |
| 2026-04-19 09:43 | 53.47178 | -2.38750 | 77 ft | 27 kts | 264° |
| 2026-04-19 09:43 | 53.47127 | -2.39352 | 104 ft | 78 kts | 263° |
| 2026-04-19 09:44 | 53.47008 | -2.40327 | 356 ft | 84 kts | 258° |
| 2026-04-19 09:44 | 53.46868 | -2.41297 | 525 ft | 87 kts | 264° |
| 2026-04-19 09:44 | 53.46946 | -2.42262 | 685 ft | 84 kts | 291° |
| 2026-04-19 09:44 | 53.47194 | -2.43164 | 775 ft | 86 kts | 312° |
| 2026-04-19 09:45 | 53.47750 | -2.43519 | 807 ft | 90 kts | 355° |
| 2026-04-19 09:45 | 53.48347 | -2.43217 | 980 ft | 84 kts | 33° |
| 2026-04-19 09:45 | 53.48736 | -2.42411 | 1135 ft | 88 kts | 49° |
| 2026-04-19 09:45 | 53.49048 | -2.41553 | 1354 ft | 92 kts | 58° |
| 2026-04-19 09:46 | 53.49302 | -2.40465 | 1424 ft | 108 kts | 63° |
| 2026-04-19 09:46 | 53.49471 | -2.39230 | 1631 ft | 111 kts | 86° |
| 2026-04-19 09:46 | 53.49293 | -2.37973 | 1800 ft | 109 kts | 114° |
| 2026-04-19 09:46 | 53.48819 | -2.37048 | 1920 ft | 106 kts | 146° |
| 2026-04-19 09:47 | 53.48180 | -2.36485 | 1969 ft | 103 kts | 162° |
| 2026-04-19 09:47 | 53.47466 | -2.36271 | 1940 ft | 107 kts | 179° |
| 2026-04-19 09:47 | 53.46692 | -2.36232 | 1875 ft | 114 kts | 185° |
| 2026-04-19 09:47 | 53.45920 | -2.36140 | 1853 ft | 116 kts | 173° |
| 2026-04-19 09:48 | 53.45143 | -2.35754 | 1786 ft | 117 kts | 161° |
| 2026-04-19 09:48 | 53.44382 | -2.35203 | 1722 ft | 120 kts | 156° |
| 2026-04-19 09:48 | 53.43643 | -2.34608 | 1724 ft | 115 kts | 161° |
| 2026-04-19 09:48 | 53.42885 | -2.34208 | 1713 ft | 113 kts | 167° |
| 2026-04-19 09:49 | 53.42118 | -2.33826 | 1675 ft | 118 kts | 168° |
| 2026-04-19 09:49 | 53.41332 | -2.33449 | 1657 ft | 117 kts | 167° |
| 2026-04-19 09:49 | 53.40538 | -2.33055 | 1496 ft | 122 kts | 165° |
| 2026-04-19 09:49 | 53.39754 | -2.32612 | 1424 ft | 117 kts | 163° |
| 2026-04-19 09:50 | 53.39000 | -2.32215 | 1396 ft | 112 kts | 166° |
| 2026-04-19 09:50 | 53.38270 | -2.31815 | 1385 ft | 109 kts | 163° |
| 2026-04-19 09:50 | 53.37641 | -2.31167 | 1346 ft | 108 kts | 120° |
| 2026-04-19 09:50 | 53.37522 | -2.29991 | 1305 ft | 102 kts | 78° |
| 2026-04-19 09:51 | 53.37716 | -2.28899 | 1322 ft | 96 kts | 59° |
| 2026-04-19 09:51 | 53.38004 | -2.27929 | 1346 ft | 89 kts | 57° |
| 2026-04-19 09:51 | 53.38323 | -2.27033 | 1389 ft | 90 kts | 47° |
| 2026-04-19 09:51 | 53.38716 | -2.26167 | 1374 ft | 94 kts | 47° |
| 2026-04-19 09:52 | 53.38827 | -2.25150 | 1460 ft | 96 kts | 113° |
| 2026-04-19 09:52 | 53.38374 | -2.24274 | 1369 ft | 108 kts | 136° |
| 2026-04-19 09:52 | 53.37872 | -2.23506 | 1397 ft | 89 kts | 148° |
| 2026-04-19 09:52 | 53.37332 | -2.23554 | 1227 ft | 83 kts | 226° |
| 2026-04-19 09:53 | 53.36944 | -2.24269 | 1023 ft | 80 kts | 238° |
| 2026-04-19 09:53 | 53.36578 | -2.25016 | 704 ft | 85 kts | 251° |
| 2026-04-19 09:53 | 53.36210 | -2.25769 | 415 ft | 81 kts | 249° |
| 2026-04-19 09:53 | 53.35875 | -2.26459 | 280 ft | 71 kts | 243° |
| 2026-04-19 09:54 | 53.35599 | -2.27027 | 265 ft | 57 kts | 237° |
| 2026-04-19 09:54 | 53.35369 | -2.27509 | 253 ft | 50 kts | 232° |
| 2026-04-19 09:54 | 53.35060 | -2.28107 | 334 ft | 84 kts | 233° |
| 2026-04-19 09:54 | 53.34655 | -2.28841 | 628 ft | 89 kts | 232° |
| 2026-04-19 09:55 | 53.34220 | -2.29654 | 854 ft | 98 kts | 234° |
| 2026-04-19 09:55 | 53.33642 | -2.30273 | 1054 ft | 103 kts | 193° |
| 2026-04-19 09:55 | 53.32950 | -2.29905 | 1126 ft | 110 kts | 140° |
| 2026-04-19 09:55 | 53.32448 | -2.28950 | 1238 ft | 109 kts | 126° |
| 2026-04-19 09:56 | 53.31998 | -2.27898 | 1332 ft | 112 kts | 113° |
| 2026-04-19 09:56 | 53.32046 | -2.26737 | 1451 ft | 98 kts | 52° |
| 2026-04-19 09:56 | 53.32507 | -2.25927 | 1571 ft | 94 kts | 34° |
| 2026-04-19 09:56 | 53.32975 | -2.25148 | 1689 ft | 95 kts | 40° |
| 2026-04-19 09:57 | 53.33425 | -2.24334 | 1744 ft | 95 kts | 35° |
| 2026-04-19 09:57 | 53.33889 | -2.23625 | 1780 ft | 85 kts | 31° |
| 2026-04-19 09:57 | 53.34362 | -2.23159 | 1770 ft | 74 kts | 356° |
| 2026-04-19 09:57 | 53.34831 | -2.23371 | 1659 ft | 70 kts | 324° |
| 2026-04-19 09:58 | 53.35225 | -2.23829 | 1546 ft | 66 kts | 316° |
| 2026-04-19 09:58 | 53.35524 | -2.24362 | 1442 ft | 63 kts | 307° |
| 2026-04-19 09:58 | 53.35736 | -2.25042 | 1249 ft | 69 kts | 282° |
| 2026-04-19 09:58 | 53.35684 | -2.25890 | 966 ft | 79 kts | 244° |
| 2026-04-19 09:59 | 53.35338 | -2.26619 | 698 ft | 82 kts | 244° |
| 2026-04-19 09:59 | 53.34975 | -2.27386 | 448 ft | 85 kts | 244° |
| 2026-04-19 09:59 | 53.34611 | -2.28141 | 252 ft | 79 kts | 240° |
| 2026-04-19 09:59 | 53.34290 | -2.28787 | 210 ft | 66 kts | 242° |
| 2026-04-19 10:00 | 53.34032 | -2.29347 | 203 ft | 59 kts | 228° |
| 2026-04-19 10:00 | 53.33736 | -2.29953 | 195 ft | 84 kts | 233° |
| 2026-04-19 10:00 | 53.33325 | -2.30761 | 304 ft | 94 kts | 234° |
| 2026-04-19 10:00 | 53.32845 | -2.31543 | 466 ft | 101 kts | 213° |
| 2026-04-19 10:01 | 53.32137 | -2.31452 | 640 ft | 109 kts | 149° |
| 2026-04-19 10:01 | 53.31574 | -2.30689 | 767 ft | 100 kts | 131° |
| 2026-04-19 10:01 | 53.31117 | -2.29822 | 853 ft | 101 kts | 111° |
| 2026-04-19 10:01 | 53.31112 | -2.28731 | 1060 ft | 97 kts | 63° |
| 2026-04-19 10:02 | 53.31469 | -2.27741 | 1252 ft | 104 kts | 47° |
| 2026-04-19 10:02 | 53.31921 | -2.26818 | 1429 ft | 104 kts | 40° |
| 2026-04-19 10:02 | 53.32437 | -2.25971 | 1551 ft | 103 kts | 37° |
| 2026-04-19 10:02 | 53.32934 | -2.25096 | 1647 ft | 104 kts | 40° |
| 2026-04-19 10:03 | 53.33438 | -2.24209 | 1716 ft | 105 kts | 41° |
| 2026-04-19 10:03 | 53.33929 | -2.23319 | 1767 ft | 106 kts | 42° |
| 2026-04-19 10:03 | 53.34394 | -2.22361 | 1728 ft | 105 kts | 48° |
| 2026-04-19 10:03 | 53.34808 | -2.21426 | 1773 ft | 91 kts | 49° |
| 2026-04-19 10:04 | 53.34858 | -2.20465 | 1801 ft | 90 kts | 116° |
| 2026-04-19 10:04 | 53.34342 | -2.20081 | 1798 ft | 82 kts | 195° |
| 2026-04-19 10:04 | 53.34087 | -2.20753 | 1717 ft | 72 kts | 289° |
| 2026-04-19 10:04 | 53.34516 | -2.21009 | 1672 ft | 82 kts | 17° |
| 2026-04-19 10:05 | 53.34717 | -2.20136 | 1651 ft | 91 kts | 102° |
| 2026-04-19 10:05 | 53.34230 | -2.19635 | 1586 ft | 89 kts | 191° |
| 2026-04-19 10:05 | 53.33868 | -2.20313 | 1489 ft | 80 kts | 262° |
| 2026-04-19 10:05 | 53.34105 | -2.20988 | 1488 ft | 77 kts | 339° |
| 2026-04-19 10:06 | 53.34608 | -2.20577 | 1393 ft | 87 kts | 51° |
| 2026-04-19 10:06 | 53.34507 | -2.19702 | 1398 ft | 85 kts | 150° |
| 2026-04-19 10:06 | 53.34018 | -2.19956 | 1292 ft | 76 kts | 248° |
| 2026-04-19 10:06 | 53.34246 | -2.20579 | 1166 ft | 72 kts | 335° |
| 2026-04-19 10:07 | 53.34680 | -2.20909 | 1173 ft | 65 kts | 329° |
| 2026-04-19 10:07 | 53.35043 | -2.21367 | 1193 ft | 66 kts | 321° |
| 2026-04-19 10:07 | 53.35414 | -2.21865 | 1185 ft | 70 kts | 322° |
| 2026-04-19 10:07 | 53.35786 | -2.22405 | 1157 ft | 74 kts | 317° |
| 2026-04-19 10:08 | 53.36145 | -2.22999 | 1154 ft | 70 kts | 310° |
| 2026-04-19 10:08 | 53.36298 | -2.23744 | 1177 ft | 70 kts | 274° |
| 2026-04-19 10:08 | 53.36216 | -2.24649 | 993 ft | 86 kts | 255° |
| 2026-04-19 10:08 | 53.35881 | -2.25518 | 823 ft | 92 kts | 236° |
| 2026-04-19 10:09 | 53.35518 | -2.26280 | 682 ft | 82 kts | 245° |
| 2026-04-19 10:09 | 53.35154 | -2.27030 | 416 ft | 83 kts | 242° |
| 2026-04-19 10:09 | 53.34802 | -2.27746 | 266 ft | 75 kts | 235° |
| 2026-04-19 10:09 | 53.34497 | -2.28374 | 219 ft | 65 kts | 232° |
| 2026-04-19 10:10 | 53.34214 | -2.28950 | 207 ft | 77 kts | 232° |
| 2026-04-19 10:10 | 53.33811 | -2.29753 | 378 ft | 98 kts | 237° |
| 2026-04-19 10:10 | 53.33373 | -2.30704 | 586 ft | 106 kts | 238° |
| 2026-04-19 10:10 | 53.32999 | -2.31672 | 929 ft | 94 kts | 242° |
| 2026-04-19 10:11 | 53.32630 | -2.32593 | 1139 ft | 100 kts | 238° |
| 2026-04-19 10:11 | 53.32346 | -2.33640 | 1254 ft | 104 kts | 258° |
| 2026-04-19 10:11 | 53.32181 | -2.34809 | 1258 ft | 102 kts | 264° |
| 2026-04-19 10:11 | 53.32090 | -2.35953 | 1246 ft | 96 kts | 284° |
| 2026-04-19 10:12 | 53.32375 | -2.36952 | 1257 ft | 96 kts | 297° |
| 2026-04-19 10:12 | 53.32663 | -2.37947 | 1278 ft | 94 kts | 297° |
| 2026-04-19 10:12 | 53.32946 | -2.38903 | 1281 ft | 89 kts | 297° |
| 2026-04-19 10:12 | 53.33240 | -2.39810 | 1281 ft | 91 kts | 304° |
| 2026-04-19 10:13 | 53.33604 | -2.40721 | 1281 ft | 96 kts | 303° |
| 2026-04-19 10:13 | 53.33987 | -2.41650 | 1287 ft | 97 kts | 309° |
| 2026-04-19 10:13 | 53.34446 | -2.42498 | 1291 ft | 99 kts | 312° |
| 2026-04-19 10:13 | 53.34915 | -2.43369 | 1296 ft | 101 kts | 312° |
| 2026-04-19 10:14 | 53.35389 | -2.44240 | 1295 ft | 102 kts | 312° |
| 2026-04-19 10:14 | 53.35871 | -2.45130 | 1295 ft | 105 kts | 312° |
| 2026-04-19 10:14 | 53.36364 | -2.46039 | 1293 ft | 106 kts | 312° |
| 2026-04-19 10:14 | 53.36859 | -2.46946 | 1296 ft | 106 kts | 312° |
| 2026-04-19 10:15 | 53.37359 | -2.47862 | 1289 ft | 106 kts | 311° |
| 2026-04-19 10:15 | 53.37851 | -2.48773 | 1287 ft | 105 kts | 312° |
| 2026-04-19 10:15 | 53.38345 | -2.49686 | 1287 ft | 107 kts | 312° |
| 2026-04-19 10:15 | 53.38841 | -2.50601 | 1288 ft | 105 kts | 312° |
| 2026-04-19 10:16 | 53.39315 | -2.51534 | 1287 ft | 105 kts | 300° |
| 2026-04-19 10:16 | 53.39273 | -2.52735 | 1282 ft | 111 kts | 249° |
| 2026-04-19 10:16 | 53.38976 | -2.53922 | 1280 ft | 109 kts | 253° |
| 2026-04-19 10:16 | 53.38627 | -2.55045 | 1283 ft | 113 kts | 233° |
| 2026-04-19 10:17 | 53.38066 | -2.55970 | 1285 ft | 113 kts | 231° |
| 2026-04-19 10:17 | 53.37516 | -2.56919 | 1290 ft | 114 kts | 231° |
| 2026-04-19 10:17 | 53.36945 | -2.57860 | 1278 ft | 116 kts | 230° |
| 2026-04-19 10:17 | 53.36382 | -2.58808 | 1281 ft | 117 kts | 232° |
| 2026-04-19 10:18 | 53.35807 | -2.59788 | 1284 ft | 119 kts | 230° |
| 2026-04-19 10:18 | 53.35237 | -2.60790 | 1280 ft | 118 kts | 231° |
| 2026-04-19 10:18 | 53.34665 | -2.61781 | 1283 ft | 119 kts | 232° |
| 2026-04-19 10:19 | 53.34288 | -2.63821 | 1281 ft | 112 kts | 266° |
| 2026-04-19 10:19 | 53.34158 | -2.65112 | 1281 ft | 113 kts | 266° |
| 2026-04-19 10:19 | 53.34029 | -2.66401 | 1281 ft | 111 kts | 266° |
| 2026-04-19 10:19 | 53.33916 | -2.67678 | 1283 ft | 110 kts | 266° |
| 2026-04-19 10:20 | 53.33799 | -2.68943 | 1269 ft | 109 kts | 268° |
| 2026-04-19 10:20 | 53.33767 | -2.70179 | 1296 ft | 102 kts | 277° |
| 2026-04-19 10:20 | 53.33800 | -2.71389 | 1208 ft | 108 kts | 279° |
| 2026-04-19 10:20 | 53.33834 | -2.72577 | 1198 ft | 98 kts | 275° |
| 2026-04-19 10:21 | 53.33793 | -2.73733 | 1078 ft | 100 kts | 271° |
| 2026-04-19 10:21 | 53.33748 | -2.74893 | 999 ft | 99 kts | 274° |
| 2026-04-19 10:21 | 53.33758 | -2.75997 | 944 ft | 93 kts | 273° |
| 2026-04-19 10:21 | 53.33714 | -2.77059 | 859 ft | 91 kts | 271° |
| 2026-04-19 10:22 | 53.33671 | -2.78090 | 775 ft | 85 kts | 270° |
| 2026-04-19 10:22 | 53.33645 | -2.79059 | 671 ft | 82 kts | 265° |
| 2026-04-19 10:22 | 53.33584 | -2.79988 | 570 ft | 77 kts | 262° |
| 2026-04-19 10:22 | 53.33545 | -2.80819 | 462 ft | 66 kts | 267° |
| 2026-04-19 10:23 | 53.33516 | -2.81544 | 332 ft | 60 kts | 265° |
| 2026-04-19 10:23 | 53.33485 | -2.82211 | 250 ft | 57 kts | 266° |
| 2026-04-19 10:23 | 53.33456 | -2.82901 | 178 ft | 61 kts | 266° |
| 2026-04-19 10:23 | 53.33422 | -2.83622 | 112 ft | 62 kts | 266° |
| 2026-04-19 10:24 | 53.33394 | -2.84296 | 91 ft | 54 kts | 265° |
| 2026-04-19 10:24 | 53.33366 | -2.84877 | 91 ft | 45 kts | 263° |
| 2026-04-19 10:24 | 53.33367 | -2.85272 | 91 ft | 30 kts | 283° |
| 2026-04-19 10:24 | 53.33431 | -2.85575 | 91 ft | 21 kts | 293° |
| 2026-04-19 10:25 | 53.33493 | -2.85640 | 89 ft | 15 kts | 52° |
| 2026-04-19 10:25 | 53.33510 | -2.85423 | 89 ft | 22 kts | 85° |
| 2026-04-19 10:25 | 53.33523 | -2.85138 | 89 ft | 27 kts | 86° |
| 2026-04-19 10:25 | 53.33537 | -2.84816 | 89 ft | 29 kts | 86° |
| 2026-04-19 10:26 | 53.33553 | -2.84480 | 89 ft | 27 kts | 84° |
| 2026-04-19 10:26 | 53.33561 | -2.84259 | 89 ft | 16 kts | 86° |
| 2026-04-19 10:26 | 53.33570 | -2.84068 | 89 ft | 14 kts | 88° |
| 2026-04-19 10:26 | 53.33580 | -2.83886 | 89 ft | 15 kts | 87° |
| 2026-04-19 10:27 | 53.33629 | -2.83801 | 89 ft | 14 kts | 355° |
| 2026-04-19 10:27 | 53.33668 | -2.83732 | 89 ft | 14 kts | 167° |
| 2026-04-19 10:27 | 53.33655 | -2.83731 | 89 ft | 0 kts | 187° |